createdAt,value
2022-09-09T00:00:36.317Z,19.40
2022-09-09T00:02:16.652Z,19.65
2022-09-09T00:03:24.526Z,19.47
2022-09-09T00:04:31.167Z,19.36
2022-09-09T00:05:56.015Z,19.61
2022-09-09T00:07:25.845Z,19.55
2022-09-09T00:08:55.217Z,19.53
2022-09-09T00:10:12.229Z,19.66
2022-09-09T00:11:28.122Z,19.47
2022-09-09T00:12:52.849Z,19.51
2022-09-09T00:13:57.901Z,19.29
2022-09-09T00:15:14.035Z,19.46
2022-09-09T00:16:25.673Z,19.40
2022-09-09T00:17:43.959Z,19.52
2022-09-09T00:18:46.333Z,18.98
2022-09-09T00:19:57.407Z,19.38
2022-09-09T00:21:08.454Z,19.45
2022-09-09T00:22:20.256Z,19.39
2022-09-09T00:23:31.573Z,19.40
2022-09-09T00:24:42.998Z,19.40
2022-09-09T00:25:54.588Z,19.34
2022-09-09T00:27:05.460Z,19.38
2022-09-09T00:28:20.535Z,19.47
2022-09-09T00:30:21.418Z,19.43
2022-09-09T00:31:30.316Z,19.45
2022-09-09T00:32:34.420Z,19.22
2022-09-09T00:33:37.327Z,19.24
2022-09-09T00:34:53.406Z,19.49
2022-09-09T00:35:58.736Z,19.38
2022-09-09T00:37:00.907Z,19.09
2022-09-09T00:38:13.624Z,19.41
2022-09-09T00:39:38.394Z,19.55
2022-09-09T00:40:53.449Z,19.48
2022-09-09T00:42:19.220Z,19.16
2022-09-09T00:43:32.806Z,19.57
2022-09-09T00:44:38.175Z,19.40
2022-09-09T00:46:19.329Z,19.61
2022-09-09T00:47:41.608Z,19.65
2022-09-09T00:49:24.217Z,19.61
2022-09-09T00:50:50.441Z,19.63
2022-09-09T00:52:31.486Z,19.60
2022-09-09T00:53:52.041Z,19.72
2022-09-09T00:55:04.086Z,19.21
2022-09-09T00:56:20.245Z,19.58
2022-09-09T00:57:36.036Z,19.58
2022-09-09T00:58:38.536Z,19.14
2022-09-09T00:59:48.824Z,19.47
2022-09-09T01:01:02.807Z,19.47
2022-09-09T01:02:43.796Z,19.55
2022-09-09T01:03:54.354Z,19.11
2022-09-09T01:05:06.508Z,19.39
2022-09-09T01:06:34.845Z,19.53
2022-09-09T01:07:37.354Z,19.07
2022-09-09T01:09:17.087Z,19.55
2022-09-09T01:10:31.539Z,19.45
2022-09-09T01:12:02.951Z,19.58
2022-09-09T01:13:16.248Z,19.50
2022-09-09T01:14:26.333Z,19.62
2022-09-09T01:15:32.023Z,19.26
2022-09-09T01:16:35.201Z,19.07
2022-09-09T01:18:02.485Z,19.52
2022-09-09T01:19:13.505Z,19.30
2022-09-09T01:20:22.363Z,19.26
2022-09-09T01:21:45.716Z,19.33
2022-09-09T01:22:51.842Z,19.42
2022-09-09T01:24:06.912Z,19.51
2022-09-09T01:26:09.225Z,19.32
2022-09-09T01:27:11.754Z,19.01
2022-09-09T01:28:36.487Z,19.31
2022-09-09T01:29:42.904Z,19.00
2022-09-09T01:30:45.707Z,18.93
2022-09-09T01:31:57.430Z,19.36
2022-09-09T01:33:01.337Z,19.07
2022-09-09T01:34:09.566Z,18.91
2022-09-09T01:35:28.941Z,19.32
2022-09-09T01:36:43.631Z,18.93
2022-09-09T01:37:46.236Z,18.90
2022-09-09T01:38:48.779Z,18.72
2022-09-09T01:39:51.795Z,18.77
2022-09-09T01:40:54.638Z,18.88
2022-09-09T01:42:02.657Z,18.90
2022-09-09T01:43:05.411Z,18.84
2022-09-09T01:44:09.162Z,18.98
2022-09-09T01:45:13.257Z,18.75
2022-09-09T01:46:16.023Z,18.88
2022-09-09T01:47:42.870Z,18.87
2022-09-09T01:49:11.858Z,18.97
2022-09-09T01:50:16.633Z,19.09
2022-09-09T01:51:19.062Z,18.89
2022-09-09T01:52:21.418Z,18.80
2022-09-09T01:53:24.276Z,18.91
2022-09-09T01:54:30.479Z,19.08
2022-09-09T01:55:42.534Z,19.31
2022-09-09T01:56:49.468Z,18.98
2022-09-09T01:58:02.624Z,19.33
2022-09-09T01:59:16.462Z,19.31
2022-09-09T02:00:19.056Z,18.96
2022-09-09T02:01:55.774Z,19.33
2022-09-09T02:02:57.984Z,18.89
2022-09-09T02:04:38.709Z,19.28
2022-09-09T02:05:55.792Z,19.26
2022-09-09T02:07:02.558Z,18.89
2022-09-09T02:08:12.252Z,19.26
2022-09-09T02:09:27.422Z,19.35
2022-09-09T02:10:43.706Z,19.24
2022-09-09T02:12:14.551Z,19.29
2022-09-09T02:13:23.482Z,18.89
2022-09-09T02:14:31.776Z,19.12
2022-09-09T02:15:43.773Z,19.12
2022-09-09T02:16:54.936Z,19.14
2022-09-09T02:18:05.294Z,19.05
2022-09-09T02:19:18.050Z,19.06
2022-09-09T02:20:42.105Z,18.83
2022-09-09T02:21:46.675Z,19.01
2022-09-09T02:22:51.981Z,18.99
2022-09-09T02:23:58.408Z,18.85
2022-09-09T02:25:03.833Z,18.87
2022-09-09T02:26:08.785Z,18.82
2022-09-09T02:27:13.147Z,18.80
2022-09-09T02:28:19.240Z,18.84
2022-09-09T02:29:48.154Z,18.94
2022-09-09T02:30:56.224Z,18.76
2022-09-09T02:32:09.136Z,19.00
2022-09-09T02:33:15.293Z,18.74
2022-09-09T02:34:25.403Z,18.89
2022-09-09T02:35:31.574Z,18.93
2022-09-09T02:36:36.499Z,18.85
2022-09-09T02:37:40.773Z,18.85
2022-09-09T02:38:51.567Z,19.04
2022-09-09T02:39:56.403Z,18.80
2022-09-09T02:40:59.595Z,18.73
2022-09-09T02:42:01.838Z,18.76
2022-09-09T02:43:07.721Z,18.73
2022-09-09T02:44:18.887Z,19.07
2022-09-09T02:45:32.710Z,19.03
2022-09-09T02:46:58.946Z,19.14
2022-09-09T02:48:29.429Z,19.20
2022-09-09T02:49:40.377Z,19.22
2022-09-09T02:51:06.366Z,19.24
2022-09-09T02:52:13.020Z,18.92
2022-09-09T02:53:35.312Z,19.14
2022-09-09T02:54:40.039Z,19.03
2022-09-09T02:55:49.338Z,19.16
2022-09-09T02:56:55.330Z,19.09
2022-09-09T02:58:06.994Z,19.06
2022-09-09T02:59:10.955Z,18.73
2022-09-09T03:00:14.368Z,18.87
2022-09-09T03:01:17.448Z,18.81
2022-09-09T03:02:19.866Z,18.81
2022-09-09T03:03:27.187Z,18.85
2022-09-09T03:04:31.030Z,18.93
2022-09-09T03:05:33.527Z,18.93
2022-09-09T03:06:36.585Z,18.87
2022-09-09T03:07:50.671Z,18.85
2022-09-09T03:08:54.428Z,18.91
2022-09-09T03:10:00.955Z,18.84
2022-09-09T03:11:03.775Z,18.94
2022-09-09T03:12:09.073Z,18.94
2022-09-09T03:13:12.018Z,18.94
2022-09-09T03:14:15.227Z,18.93
2022-09-09T03:15:17.677Z,18.79
2022-09-09T03:16:20.528Z,18.83
2022-09-09T03:17:25.631Z,18.86
2022-09-09T03:18:30.075Z,18.91
2022-09-09T03:19:33.093Z,19.02
2022-09-09T03:20:35.576Z,19.01
2022-09-09T03:21:37.694Z,19.05
2022-09-09T03:22:40.066Z,19.09
2022-09-09T03:23:42.509Z,18.98
2022-09-09T03:24:44.675Z,18.91
2022-09-09T03:25:51.000Z,19.35
2022-09-09T03:26:56.848Z,19.06
2022-09-09T03:27:58.934Z,18.96
2022-09-09T03:29:01.516Z,19.02
2022-09-09T03:30:06.187Z,19.08
2022-09-09T03:31:11.295Z,19.09
2022-09-09T03:32:16.527Z,18.88
2022-09-09T03:33:18.768Z,18.92
2022-09-09T03:34:21.780Z,18.89
2022-09-09T03:35:23.887Z,18.80
2022-09-09T03:36:27.668Z,19.11
2022-09-09T03:37:30.301Z,18.87
2022-09-09T03:38:33.077Z,18.89
2022-09-09T03:39:35.428Z,18.92
2022-09-09T03:40:37.804Z,18.94
2022-09-09T03:41:40.013Z,18.91
2022-09-09T03:42:42.745Z,18.89
2022-09-09T03:43:45.589Z,18.92
2022-09-09T03:44:51.018Z,18.99
2022-09-09T03:45:57.850Z,19.02
2022-09-09T03:47:01.684Z,18.81
2022-09-09T03:48:05.781Z,18.86
2022-09-09T03:49:11.103Z,19.00
2022-09-09T03:50:13.326Z,18.89
2022-09-09T03:51:22.591Z,18.90
2022-09-09T03:52:27.312Z,18.86
2022-09-09T03:53:30.176Z,18.90
2022-09-09T03:54:32.685Z,18.88
2022-09-09T03:55:34.865Z,18.94
2022-09-09T03:56:37.819Z,18.94
2022-09-09T03:57:40.062Z,18.90
2022-09-09T03:58:44.716Z,18.87
2022-09-09T03:59:48.484Z,18.86
2022-09-09T04:00:59.642Z,19.33
2022-09-09T04:02:03.576Z,19.04
2022-09-09T04:03:06.910Z,18.72
2022-09-09T04:04:09.907Z,18.74
2022-09-09T04:05:12.417Z,18.73
2022-09-09T04:06:18.147Z,18.84
2022-09-09T04:07:22.477Z,18.50
2022-09-09T04:08:28.191Z,18.74
2022-09-09T04:09:30.577Z,18.64
2022-09-09T04:10:32.674Z,18.38
2022-09-09T04:11:35.362Z,18.64
2022-09-09T04:12:37.550Z,18.70
2022-09-09T04:13:40.235Z,18.58
2022-09-09T04:14:44.605Z,18.75
2022-09-09T04:15:57.652Z,18.92
2022-09-09T04:17:00.556Z,18.67
2022-09-09T04:18:02.852Z,18.70
2022-09-09T04:19:07.551Z,18.81
2022-09-09T04:20:13.053Z,18.59
2022-09-09T04:21:16.374Z,18.68
2022-09-09T04:22:18.474Z,18.65
2022-09-09T04:23:21.555Z,18.54
2022-09-09T04:24:23.790Z,18.50
2022-09-09T04:25:26.230Z,18.52
2022-09-09T04:26:28.450Z,18.52
2022-09-09T04:27:30.615Z,18.57
2022-09-09T04:28:36.399Z,18.90
2022-09-09T04:29:39.935Z,18.60
2022-09-09T04:30:44.810Z,18.77
2022-09-09T04:31:48.025Z,18.47
2022-09-09T04:32:50.291Z,18.51
2022-09-09T04:33:53.345Z,18.57
2022-09-09T04:34:55.503Z,18.59
2022-09-09T04:35:58.011Z,18.42
2022-09-09T04:37:02.174Z,18.52
2022-09-09T04:38:05.153Z,18.42
2022-09-09T04:39:08.601Z,18.48
2022-09-09T04:40:10.846Z,18.47
2022-09-09T04:41:13.449Z,18.46
2022-09-09T04:42:20.217Z,18.43
2022-09-09T04:43:24.021Z,18.50
2022-09-09T04:44:26.578Z,18.47
2022-09-09T04:45:29.785Z,18.43
2022-09-09T04:46:32.006Z,18.52
2022-09-09T04:47:36.900Z,18.47
2022-09-09T04:48:39.312Z,18.53
2022-09-09T04:49:43.286Z,18.40
2022-09-09T04:50:45.458Z,18.49
2022-09-09T04:51:50.552Z,18.74
2022-09-09T04:52:53.399Z,18.44
2022-09-09T04:53:55.562Z,18.45
2022-09-09T04:54:57.973Z,18.48
2022-09-09T04:56:07.797Z,18.89
2022-09-09T04:57:18.497Z,18.54
2022-09-09T04:58:23.496Z,18.47
2022-09-09T04:59:26.319Z,18.50
2022-09-09T05:00:31.980Z,18.53
2022-09-09T05:01:35.029Z,18.55
2022-09-09T05:02:40.761Z,18.51
2022-09-09T05:03:43.119Z,18.55
2022-09-09T05:04:47.897Z,18.53
2022-09-09T05:05:50.045Z,18.47
2022-09-09T05:06:52.196Z,18.57
2022-09-09T05:07:54.306Z,18.55
2022-09-09T05:08:56.480Z,18.55
2022-09-09T05:10:06.039Z,18.44
2022-09-09T05:11:20.234Z,18.88
2022-09-09T05:12:24.143Z,18.44
2022-09-09T05:13:28.819Z,18.44
2022-09-09T05:14:31.211Z,18.43
2022-09-09T05:15:36.470Z,18.38
2022-09-09T05:16:39.229Z,18.46
2022-09-09T05:17:41.483Z,18.44
2022-09-09T05:18:44.495Z,18.56
2022-09-09T05:19:46.652Z,18.49
2022-09-09T05:20:51.389Z,18.62
2022-09-09T05:21:54.016Z,18.54
2022-09-09T05:23:02.113Z,18.62
2022-09-09T05:24:06.329Z,18.64
2022-09-09T05:25:08.988Z,18.75
2022-09-09T05:26:17.484Z,19.01
2022-09-09T05:27:21.990Z,18.96
2022-09-09T05:28:26.755Z,18.71
2022-09-09T05:29:29.448Z,18.72
2022-09-09T05:30:32.678Z,18.77
2022-09-09T05:31:37.659Z,18.67
2022-09-09T05:32:44.814Z,18.79
2022-09-09T05:33:50.371Z,18.98
2022-09-09T05:34:53.199Z,18.75
2022-09-09T05:36:00.190Z,19.24
2022-09-09T05:37:02.327Z,18.92
2022-09-09T05:38:04.535Z,18.86
2022-09-09T05:39:06.758Z,19.00
2022-09-09T05:40:12.043Z,18.86
2022-09-09T05:41:16.763Z,19.02
2022-09-09T05:42:18.900Z,19.06
2022-09-09T05:43:21.322Z,19.20
2022-09-09T05:44:25.000Z,19.29
2022-09-09T05:45:27.132Z,19.19
2022-09-09T05:46:29.348Z,19.44
2022-09-09T05:47:32.028Z,19.53
2022-09-09T05:48:38.353Z,19.78
2022-09-09T05:49:40.918Z,19.50
2022-09-09T05:50:43.962Z,19.76
2022-09-09T05:51:46.322Z,19.48
2022-09-09T05:52:50.894Z,19.74
2022-09-09T05:53:53.529Z,19.79
2022-09-09T05:54:57.888Z,19.76
2022-09-09T05:56:08.625Z,20.28
2022-09-09T05:57:10.837Z,20.55
2022-09-09T05:58:13.622Z,19.95
2022-09-09T05:59:15.895Z,19.69
2022-09-09T06:00:18.357Z,19.96
2022-09-09T06:01:28.160Z,20.50
2022-09-09T06:02:30.657Z,20.39
2022-09-09T06:03:32.905Z,20.54
2022-09-09T06:04:35.229Z,20.62
2022-09-09T06:05:38.286Z,20.59
2022-09-09T06:06:40.880Z,20.58
2022-09-09T06:07:52.943Z,20.75
2022-09-09T06:08:58.450Z,20.94
2022-09-09T06:10:02.557Z,20.60
2022-09-09T06:11:07.861Z,21.07
2022-09-09T06:12:10.144Z,21.00
2022-09-09T06:13:12.610Z,20.85
2022-09-09T06:14:15.548Z,20.93
2022-09-09T06:15:21.049Z,20.91
2022-09-09T06:16:25.773Z,21.47
2022-09-09T06:17:27.920Z,21.32
2022-09-09T06:18:30.563Z,21.41
2022-09-09T06:19:32.703Z,21.42
2022-09-09T06:20:35.854Z,20.78
2022-09-09T06:21:38.521Z,20.95
2022-09-09T06:22:43.032Z,21.27
2022-09-09T06:23:45.662Z,21.50
2022-09-09T06:24:47.832Z,21.59
2022-09-09T06:25:50.025Z,21.61
2022-09-09T06:26:52.127Z,21.82
2022-09-09T06:27:58.800Z,22.31
2022-09-09T06:29:03.389Z,22.62
2022-09-09T06:30:05.945Z,22.60
2022-09-09T06:31:12.452Z,23.09
2022-09-09T06:32:14.759Z,23.03
2022-09-09T06:33:16.873Z,23.03
2022-09-09T06:34:18.969Z,23.01
2022-09-09T06:35:25.381Z,22.93
2022-09-09T06:36:32.721Z,23.00
2022-09-09T06:37:35.817Z,22.59
2022-09-09T06:38:38.883Z,22.84
2022-09-09T06:39:41.410Z,22.62
2022-09-09T06:40:44.963Z,22.39
2022-09-09T06:41:48.298Z,22.20
2022-09-09T06:43:10.332Z,22.32
2022-09-09T06:44:17.593Z,22.21
2022-09-09T06:45:20.643Z,22.10
2022-09-09T06:46:33.261Z,22.31
2022-09-09T06:47:36.525Z,22.13
2022-09-09T06:48:41.824Z,22.20
2022-09-09T06:49:48.304Z,22.12
2022-09-09T06:50:51.018Z,22.03
2022-09-09T06:51:54.147Z,22.14
2022-09-09T06:52:56.945Z,22.25
2022-09-09T06:54:03.051Z,22.44
2022-09-09T06:55:06.090Z,22.13
2022-09-09T06:56:16.095Z,22.49
2022-09-09T06:57:36.361Z,22.25
2022-09-09T06:58:44.066Z,22.54
2022-09-09T06:59:49.792Z,22.44
2022-09-09T07:00:52.000Z,22.58
2022-09-09T07:01:56.268Z,22.63
2022-09-09T07:02:59.363Z,22.97
2022-09-09T07:04:02.842Z,23.38
2022-09-09T07:05:09.101Z,23.61
2022-09-09T07:06:16.133Z,24.75
2022-09-09T07:07:18.799Z,24.99
2022-09-09T07:08:21.451Z,25.42
2022-09-09T07:09:24.751Z,26.01
2022-09-09T07:10:28.502Z,26.55
2022-09-09T07:11:33.794Z,27.19
2022-09-09T07:12:36.009Z,27.39
2022-09-09T07:13:38.681Z,27.89
2022-09-09T07:14:40.869Z,28.30
2022-09-09T07:15:44.266Z,28.33
2022-09-09T07:16:47.743Z,28.69
2022-09-09T07:17:52.123Z,28.71
2022-09-09T07:18:58.603Z,29.30
2022-09-09T07:20:01.197Z,28.76
2022-09-09T07:21:04.719Z,28.96
2022-09-09T07:22:07.394Z,29.04
2022-09-09T07:23:10.961Z,29.02
2022-09-09T07:24:13.714Z,28.90
2022-09-09T07:25:18.957Z,28.40
2022-09-09T07:26:24.372Z,28.95
2022-09-09T07:27:27.736Z,28.66
2022-09-09T07:28:32.710Z,28.55
2022-09-09T07:29:34.963Z,29.10
2022-09-09T07:30:37.412Z,29.41
2022-09-09T07:31:40.978Z,29.52
2022-09-09T07:32:46.999Z,29.23
2022-09-09T07:33:49.681Z,29.77
2022-09-09T07:34:52.678Z,29.37
2022-09-09T07:35:55.253Z,29.00
2022-09-09T07:36:58.438Z,28.80
2022-09-09T07:38:02.061Z,29.05
2022-09-09T07:39:07.732Z,29.67
2022-09-09T07:40:11.301Z,29.57
2022-09-09T07:41:20.141Z,29.72
2022-09-09T07:42:22.654Z,30.20
2022-09-09T07:43:27.392Z,30.85
2022-09-09T07:44:29.657Z,30.75
2022-09-09T07:45:39.409Z,31.09
2022-09-09T07:46:42.489Z,31.11
2022-09-09T07:47:46.454Z,30.54
2022-09-09T07:48:52.151Z,30.75
2022-09-09T07:49:56.877Z,30.98
2022-09-09T07:51:13.058Z,31.57
2022-09-09T07:52:18.100Z,30.62
2022-09-09T07:53:23.962Z,30.44
2022-09-09T07:54:27.166Z,30.54
2022-09-09T07:55:29.628Z,30.78
2022-09-09T07:56:33.589Z,30.16
2022-09-09T07:57:37.126Z,31.07
2022-09-09T07:58:41.492Z,31.48
2022-09-09T07:59:43.697Z,31.18
2022-09-09T08:00:46.032Z,30.63
2022-09-09T08:01:54.386Z,30.85
2022-09-09T08:02:59.512Z,29.22
2022-09-09T08:04:05.476Z,30.18
2022-09-09T08:05:08.346Z,29.01
2022-09-09T08:06:12.965Z,29.95
2022-09-09T08:07:17.058Z,29.63
2022-09-09T08:08:24.733Z,30.66
2022-09-09T08:09:29.774Z,31.33
2022-09-09T08:10:39.160Z,30.22
2022-09-09T08:11:41.700Z,30.77
2022-09-09T08:13:01.401Z,30.55
2022-09-09T08:14:08.722Z,30.18
2022-09-09T08:15:11.047Z,30.16
2022-09-09T08:16:16.317Z,30.50
2022-09-09T08:17:19.044Z,31.33
2022-09-09T08:18:21.154Z,31.69
2022-09-09T08:19:23.656Z,31.44
2022-09-09T08:20:26.189Z,32.05
2022-09-09T08:21:30.334Z,33.05
2022-09-09T08:22:34.114Z,32.69
2022-09-09T08:23:37.243Z,31.47
2022-09-09T08:24:40.282Z,32.31
2022-09-09T08:25:43.118Z,32.78
2022-09-09T08:26:48.369Z,32.71
2022-09-09T08:27:50.858Z,30.84
2022-09-09T08:28:54.992Z,30.94
2022-09-09T08:29:57.562Z,31.21
2022-09-09T08:31:17.309Z,31.38
2022-09-09T08:32:20.386Z,31.42
2022-09-09T08:33:22.509Z,31.08
2022-09-09T08:34:27.073Z,31.52
2022-09-09T08:35:33.428Z,30.65
2022-09-09T08:36:41.670Z,30.81
2022-09-09T08:37:43.873Z,29.82
2022-09-09T08:38:56.164Z,30.67
2022-09-09T08:39:58.404Z,30.49
2022-09-09T08:41:34.192Z,31.94
2022-09-09T08:42:45.922Z,31.96
2022-09-09T08:43:51.549Z,32.53
2022-09-09T08:45:17.006Z,32.44
2022-09-09T08:46:30.725Z,33.52
2022-09-09T08:47:40.733Z,33.21
2022-09-09T08:48:59.058Z,32.67
2022-09-09T08:50:25.785Z,32.15
2022-09-09T08:51:34.410Z,31.41
2022-09-09T08:52:45.003Z,32.07
2022-09-09T08:53:49.629Z,31.07
2022-09-09T08:54:52.994Z,32.26
2022-09-09T08:56:04.478Z,33.48
2022-09-09T08:57:32.057Z,32.76
2022-09-09T08:58:36.389Z,30.89
2022-09-09T08:59:42.394Z,29.84
2022-09-09T09:01:10.882Z,30.88
2022-09-09T09:02:31.877Z,30.13
2022-09-09T09:04:00.915Z,29.77
2022-09-09T09:05:10.638Z,28.68
2022-09-09T09:06:18.633Z,27.85
2022-09-09T09:07:38.998Z,28.38
2022-09-09T09:09:01.109Z,29.38
2022-09-09T09:10:41.057Z,29.78
2022-09-09T09:11:52.546Z,29.51
2022-09-09T09:12:54.894Z,30.08
2022-09-09T09:14:10.978Z,30.10
2022-09-09T09:15:27.311Z,30.34
2022-09-09T09:16:44.266Z,29.39
2022-09-09T09:17:46.724Z,29.46
2022-09-09T09:18:48.909Z,29.02
2022-09-09T09:19:51.213Z,28.52
2022-09-09T09:21:11.415Z,28.91
2022-09-09T09:22:33.868Z,28.22
2022-09-09T09:23:46.513Z,28.41
2022-09-09T09:25:01.602Z,29.12
2022-09-09T09:26:10.122Z,28.66
2022-09-09T09:27:19.395Z,29.52
2022-09-09T09:28:29.870Z,29.33
2022-09-09T09:29:56.709Z,29.28
2022-09-09T09:31:08.203Z,29.86
2022-09-09T09:32:17.467Z,30.11
2022-09-09T09:33:33.756Z,29.81
2022-09-09T09:34:36.501Z,29.86
2022-09-09T09:35:41.943Z,29.71
2022-09-09T09:37:02.771Z,29.93
2022-09-09T09:41:04.118Z,29.49
2022-09-09T09:42:15.057Z,29.77
2022-09-09T09:43:25.718Z,30.27
2022-09-09T09:44:33.243Z,30.86
2022-09-09T09:46:07.328Z,29.93
2022-09-09T09:47:19.502Z,30.14
2022-09-09T09:48:29.461Z,28.79
2022-09-09T09:49:33.182Z,29.14
2022-09-09T09:50:36.210Z,29.13
2022-09-09T09:51:38.855Z,29.11
2022-09-09T09:52:43.357Z,29.17
2022-09-09T09:53:46.503Z,29.11
2022-09-09T09:54:51.358Z,28.26
2022-09-09T09:56:03.843Z,28.80
2022-09-09T09:57:11.632Z,29.02
2022-09-09T09:58:18.552Z,29.02
2022-09-09T09:59:39.204Z,28.27
2022-09-09T10:00:53.085Z,28.35
2022-09-09T10:02:17.573Z,28.02
2022-09-09T10:03:28.028Z,28.13
2022-09-09T10:04:31.272Z,28.02
2022-09-09T10:05:36.977Z,28.30
2022-09-09T10:06:45.181Z,27.77
2022-09-09T10:07:47.617Z,28.20
2022-09-09T10:08:49.705Z,28.18
2022-09-09T10:09:57.493Z,28.07
2022-09-09T10:11:22.047Z,27.94
2022-09-09T10:12:59.647Z,27.89
2022-09-09T10:14:18.394Z,27.51
2022-09-09T10:15:39.465Z,28.18
2022-09-09T10:17:09.881Z,28.45
2022-09-09T10:18:34.897Z,28.52
2022-09-09T10:19:38.629Z,28.26
2022-09-09T10:21:13.588Z,28.83
2022-09-09T10:22:28.832Z,29.25
2022-09-09T10:24:08.281Z,29.73
2022-09-09T10:25:19.458Z,29.61
2022-09-09T10:26:50.869Z,29.71
2022-09-09T10:28:20.109Z,29.70
2022-09-09T10:29:40.319Z,29.32
2022-09-09T10:30:55.486Z,28.66
2022-09-09T10:32:07.569Z,28.76
2022-09-09T10:33:38.248Z,28.42
2022-09-09T10:35:13.133Z,29.44
2022-09-09T10:36:22.042Z,30.59
2022-09-09T10:37:27.126Z,30.62
2022-09-09T10:38:46.998Z,30.65
2022-09-09T10:40:01.638Z,30.73
2022-09-09T10:41:21.318Z,31.41
2022-09-09T10:42:31.737Z,31.56
2022-09-09T10:43:45.840Z,31.69
2022-09-09T10:45:09.348Z,31.60
2022-09-09T10:46:20.451Z,30.19
2022-09-09T10:47:59.890Z,30.72
2022-09-09T10:49:26.953Z,30.79
2022-09-09T10:51:07.172Z,30.41
2022-09-09T10:52:42.215Z,29.72
2022-09-09T10:54:14.792Z,29.82
2022-09-09T10:55:29.214Z,29.95
2022-09-09T10:56:32.013Z,29.79
2022-09-09T10:57:55.158Z,30.27
2022-09-09T10:59:23.586Z,30.07
2022-09-09T11:00:37.952Z,30.32
2022-09-09T11:01:50.356Z,31.28
2022-09-09T11:03:03.193Z,31.89
2022-09-09T11:04:18.389Z,32.59
2022-09-09T11:05:25.309Z,33.30
2022-09-09T11:06:35.450Z,33.03
2022-09-09T11:07:51.718Z,32.05
2022-09-09T11:08:57.037Z,30.80
2022-09-09T11:10:07.365Z,31.61
2022-09-09T11:11:22.577Z,31.92
2022-09-09T11:12:25.785Z,31.35
2022-09-09T11:13:59.167Z,31.26
2022-09-09T11:15:10.308Z,30.80
2022-09-09T11:16:41.168Z,30.76
2022-09-09T11:17:51.701Z,30.64
2022-09-09T11:19:03.404Z,31.59
2022-09-09T11:20:08.056Z,31.88
2022-09-09T11:21:23.335Z,32.62
2022-09-09T11:22:34.817Z,32.76
2022-09-09T11:23:45.251Z,33.85
2022-09-09T11:25:16.323Z,33.81
2022-09-09T11:26:33.117Z,32.53
2022-09-09T11:27:56.355Z,33.30
2022-09-09T11:29:38.123Z,33.38
2022-09-09T11:31:23.288Z,32.93
2022-09-09T11:32:28.002Z,32.67
2022-09-09T11:33:50.173Z,32.97
2022-09-09T11:35:12.434Z,33.03
2022-09-09T11:36:44.168Z,32.81
2022-09-09T11:38:06.045Z,32.12
2022-09-09T11:39:23.255Z,31.89
2022-09-09T11:40:27.027Z,31.01
2022-09-09T11:41:38.160Z,30.85
2022-09-09T11:42:40.311Z,30.07
2022-09-09T11:43:47.726Z,29.42
2022-09-09T11:44:49.959Z,29.05
2022-09-09T11:46:00.334Z,28.73
2022-09-09T11:47:03.565Z,28.78
2022-09-09T11:48:08.952Z,28.53
2022-09-09T11:49:29.363Z,28.83
2022-09-09T11:50:37.549Z,28.84
2022-09-09T11:51:40.707Z,28.25
2022-09-09T11:52:48.965Z,28.14
2022-09-09T11:53:56.913Z,28.59
2022-09-09T11:55:11.457Z,28.66
2022-09-09T11:56:15.499Z,28.02
2022-09-09T11:57:36.465Z,28.12
2022-09-09T11:58:42.417Z,27.44
2022-09-09T11:59:53.323Z,27.30
2022-09-09T12:00:55.413Z,27.24
2022-09-09T12:02:15.850Z,27.55
2022-09-09T12:03:36.813Z,28.27
2022-09-09T12:04:40.716Z,28.65
2022-09-09T12:05:46.974Z,28.69
2022-09-09T12:06:51.921Z,28.49
2022-09-09T12:07:59.579Z,28.41
2022-09-09T12:09:13.244Z,28.36
2022-09-09T12:10:27.342Z,28.37
2022-09-09T12:11:31.602Z,28.34
2022-09-09T12:12:39.285Z,28.25
2022-09-09T12:13:53.973Z,28.46
2022-09-09T12:15:03.120Z,28.43
2022-09-09T12:16:06.533Z,28.20
2022-09-09T12:17:21.666Z,28.45
2022-09-09T12:18:26.589Z,28.07
2022-09-09T12:19:28.709Z,28.07
2022-09-09T12:20:34.958Z,28.15
2022-09-09T12:21:42.252Z,28.04
2022-09-09T12:23:02.604Z,28.17
2022-09-09T12:24:14.037Z,27.97
2022-09-09T12:25:34.576Z,27.85
2022-09-09T12:26:49.912Z,27.45
2022-09-09T12:28:02.935Z,27.41
2022-09-09T12:29:20.185Z,28.14
2022-09-09T12:30:24.169Z,27.68
2022-09-09T12:31:56.089Z,28.33
2022-09-09T12:33:12.594Z,28.10
2022-09-09T12:34:21.354Z,28.08
2022-09-09T12:35:29.056Z,27.99
2022-09-09T12:36:34.170Z,27.96
2022-09-09T12:37:40.858Z,27.92
2022-09-09T12:38:44.578Z,27.85
2022-09-09T12:39:52.442Z,28.09
2022-09-09T12:40:56.930Z,27.62
2022-09-09T12:41:59.094Z,27.37
2022-09-09T12:43:02.312Z,27.65
2022-09-09T12:44:10.690Z,27.60
2022-09-09T12:45:18.658Z,27.69
2022-09-09T12:46:34.772Z,27.77
2022-09-09T12:47:46.899Z,27.97
2022-09-09T12:48:49.040Z,27.72
2022-09-09T12:49:52.094Z,27.85
2022-09-09T12:50:55.245Z,27.74
2022-09-09T12:51:58.375Z,27.68
2022-09-09T12:53:04.781Z,28.06
2022-09-09T12:54:07.322Z,27.61
2022-09-09T12:55:19.427Z,28.09
2022-09-09T12:56:28.304Z,28.13
2022-09-09T12:57:37.105Z,28.00
2022-09-09T12:58:40.923Z,27.84
2022-09-09T12:59:46.209Z,27.84
2022-09-09T13:00:53.314Z,28.07
2022-09-09T13:02:00.060Z,28.15
2022-09-09T13:03:15.645Z,27.62
2022-09-09T13:04:23.169Z,27.76
2022-09-09T13:05:37.137Z,26.92
2022-09-09T13:06:39.358Z,26.56
2022-09-09T13:07:41.470Z,26.18
2022-09-09T13:08:44.573Z,26.36
2022-09-09T13:09:50.434Z,26.63
2022-09-09T13:11:02.938Z,26.74
2022-09-09T13:12:08.196Z,26.61
2022-09-09T13:13:26.923Z,27.10
2022-09-09T13:14:38.289Z,26.92
2022-09-09T13:15:40.614Z,26.77
2022-09-09T13:16:43.232Z,26.85
2022-09-09T13:17:56.066Z,26.87
2022-09-09T13:19:01.345Z,26.82
2022-09-09T13:20:05.404Z,26.70
2022-09-09T13:21:07.841Z,26.70
2022-09-09T13:22:33.894Z,26.93
2022-09-09T13:23:38.271Z,26.32
2022-09-09T13:24:40.570Z,26.38
2022-09-09T13:25:54.299Z,26.55
2022-09-09T13:27:04.834Z,26.88
2022-09-09T13:28:22.688Z,26.93
2022-09-09T13:29:25.266Z,26.27
2022-09-09T13:30:31.175Z,26.36
2022-09-09T13:31:36.977Z,26.10
2022-09-09T13:32:39.189Z,26.08
2022-09-09T13:33:41.344Z,26.16
2022-09-09T13:34:53.256Z,26.48
2022-09-09T13:35:58.397Z,26.25
2022-09-09T13:37:03.836Z,26.39
2022-09-09T13:38:10.626Z,26.47
2022-09-09T13:39:19.778Z,26.45
2022-09-09T13:40:24.222Z,26.40
2022-09-09T13:41:35.967Z,26.42
2022-09-09T13:42:43.533Z,26.66
2022-09-09T13:43:48.362Z,26.73
2022-09-09T13:44:50.648Z,26.56
2022-09-09T13:46:02.290Z,27.23
2022-09-09T13:47:10.496Z,27.42
2022-09-09T13:48:20.075Z,27.52
2022-09-09T13:49:24.321Z,27.38
2022-09-09T13:50:29.759Z,27.65
2022-09-09T13:51:38.018Z,27.83
2022-09-09T13:52:41.101Z,27.14
2022-09-09T13:53:43.200Z,27.39
2022-09-09T13:54:50.449Z,27.64
2022-09-09T13:55:53.478Z,27.38
2022-09-09T13:56:56.289Z,27.13
2022-09-09T13:58:01.657Z,27.42
2022-09-09T13:59:06.744Z,27.46
2022-09-09T14:00:13.373Z,27.45
2022-09-09T14:01:15.696Z,26.66
2022-09-09T14:02:18.342Z,26.29
2022-09-09T14:03:21.566Z,26.56
2022-09-09T14:04:23.969Z,26.29
2022-09-09T14:05:26.093Z,26.33
2022-09-09T14:06:28.510Z,26.12
2022-09-09T14:07:30.796Z,25.92
2022-09-09T14:08:38.055Z,25.52
2022-09-09T14:09:41.329Z,25.35
2022-09-09T14:10:43.452Z,25.49
2022-09-09T14:11:47.270Z,25.47
2022-09-09T14:12:49.374Z,25.07
2022-09-09T14:13:51.766Z,25.54
2022-09-09T14:14:53.885Z,25.74
2022-09-09T14:15:56.027Z,26.12
2022-09-09T14:16:58.218Z,26.43
2022-09-09T14:18:00.318Z,25.91
2022-09-09T14:19:02.786Z,25.44
2022-09-09T14:20:08.883Z,25.56
2022-09-09T14:21:12.238Z,25.44
2022-09-09T14:22:14.746Z,25.52
2022-09-09T14:23:18.473Z,25.61
2022-09-09T14:24:20.701Z,25.78
2022-09-09T14:25:22.822Z,25.85
2022-09-09T14:26:25.692Z,25.71
2022-09-09T14:27:27.869Z,25.11
2022-09-09T14:28:54.897Z,25.48
2022-09-09T14:29:52.825Z,25.66
2022-09-09T14:30:55.160Z,25.57
2022-09-09T14:31:57.271Z,25.35
2022-09-09T14:32:59.421Z,25.47
2022-09-09T14:34:01.658Z,25.52
2022-09-09T14:35:04.114Z,25.45
2022-09-09T14:36:06.850Z,25.18
2022-09-09T14:37:08.963Z,25.24
2022-09-09T14:38:13.717Z,25.62
2022-09-09T14:39:19.161Z,25.57
2022-09-09T14:40:21.254Z,25.22
2022-09-09T14:41:23.675Z,25.01
2022-09-09T14:42:26.082Z,25.09
2022-09-09T14:43:28.829Z,24.89
2022-09-09T14:44:30.914Z,24.88
2022-09-09T14:45:33.759Z,24.72
2022-09-09T14:46:35.897Z,24.87
2022-09-09T14:47:39.030Z,25.19
2022-09-09T14:48:41.843Z,25.02